createdAt,value
2023-07-05T00:00:58.565Z,99164.78
2023-07-05T00:05:00.542Z,99165.25
2023-07-05T00:09:02.209Z,99172.66
2023-07-05T00:13:05.181Z,99171.19
2023-07-05T00:17:07.166Z,99180.69
2023-07-05T00:21:11.126Z,99200.47
2023-07-05T00:25:13.186Z,99284.34
2023-07-05T00:29:16.428Z,99218.78
2023-07-05T00:33:18.528Z,99175.34
2023-07-05T00:37:20.203Z,99200.81
2023-07-05T00:41:22.089Z,99182.59
2023-07-05T00:45:52.449Z,99172.63
2023-07-05T00:49:58.377Z,99160.66
2023-07-05T00:54:04.032Z,99169.44
2023-07-05T00:58:06.182Z,99144.66
2023-07-05T01:02:08.040Z,99157.97
2023-07-05T01:06:09.996Z,99162.53
2023-07-05T01:10:18.280Z,99125.31
2023-07-05T01:14:34.317Z,99132.44
2023-07-05T01:18:49.481Z,99136.88
2023-07-05T01:23:00.205Z,99134.91
2023-07-05T01:27:34.714Z,99122.88
2023-07-05T01:31:59.656Z,99129.66
2023-07-05T01:36:02.144Z,99133.16
2023-07-05T01:40:22.523Z,99136.06
2023-07-05T01:44:24.672Z,99128.22
2023-07-05T01:48:55.158Z,99127.59
2023-07-05T01:52:56.839Z,99121.75
2023-07-05T01:57:13.174Z,99116.78
2023-07-05T02:01:17.843Z,99116.59
2023-07-05T02:05:20.706Z,99121.63
2023-07-05T02:09:22.343Z,99123.88
2023-07-05T02:13:24.466Z,99125.75
2023-07-05T02:17:26.355Z,99114.31
2023-07-05T02:21:28.532Z,99133.50
2023-07-05T02:25:32.663Z,99136.78
2023-07-05T02:29:34.462Z,99134.72
2023-07-05T02:33:36.545Z,99128.75
2023-07-05T02:37:38.254Z,99134.81
2023-07-05T02:41:40.977Z,99114.72
2023-07-05T02:45:42.760Z,99119.16
2023-07-05T02:49:44.463Z,99112.66
2023-07-05T02:53:46.489Z,99105.63
2023-07-05T02:57:48.183Z,99096.13
2023-07-05T03:01:51.297Z,99094.84
2023-07-05T03:06:00.361Z,99085.72
2023-07-05T03:10:02.992Z,99074.91
2023-07-05T03:14:05.062Z,99070.97
2023-07-05T03:18:06.824Z,99062.09
2023-07-05T03:22:09.620Z,99041.09
2023-07-05T03:26:11.597Z,99036.97
2023-07-05T03:30:13.730Z,99028.31
2023-07-05T03:34:17.128Z,99055.34
2023-07-05T03:38:19.047Z,99074.50
2023-07-05T03:42:21.127Z,99084.19
2023-07-05T03:46:23.714Z,99090.47
2023-07-05T03:50:25.654Z,99095.75
2023-07-05T03:54:29.480Z,99100.47
2023-07-05T03:58:31.669Z,99109.97
2023-07-05T04:02:33.453Z,99116.97
2023-07-05T04:06:35.319Z,99103.38
2023-07-05T04:10:37.098Z,99102.66
2023-07-05T04:14:38.947Z,99086.88
2023-07-05T04:18:41.706Z,99094.94
2023-07-05T04:22:43.572Z,99085.94
2023-07-05T04:26:45.391Z,99081.81
2023-07-05T04:30:47.251Z,99093.69
2023-07-05T04:34:49.141Z,99097.13
2023-07-05T04:38:51.492Z,99114.28
2023-07-05T04:42:53.222Z,99100.00
2023-07-05T04:46:55.574Z,99091.81
2023-07-05T04:50:59.226Z,99095.94
2023-07-05T04:55:00.975Z,99113.47
2023-07-05T04:59:03.488Z,99113.09
2023-07-05T05:03:05.417Z,99111.78
2023-07-05T05:07:07.560Z,99096.63
2023-07-05T05:11:09.785Z,99104.38
2023-07-05T05:15:11.759Z,99104.50
2023-07-05T05:19:15.628Z,99109.31
2023-07-05T05:23:19.197Z,99131.28
2023-07-05T05:27:21.732Z,99147.34
2023-07-05T05:31:23.654Z,99167.69
2023-07-05T05:35:25.549Z,99175.13
2023-07-05T05:39:29.042Z,99197.81
2023-07-05T05:43:32.288Z,99202.66
2023-07-05T05:47:34.398Z,99213.31
2023-07-05T05:51:36.161Z,99222.47
2023-07-05T05:55:39.656Z,99220.09
2023-07-05T05:59:42.217Z,99214.44
2023-07-05T06:03:44.214Z,99218.38
2023-07-05T06:07:46.801Z,99212.47
2023-07-05T06:11:49.231Z,99218.06
2023-07-05T06:16:13.059Z,99222.56
2023-07-05T06:20:16.291Z,99244.94
2023-07-05T06:24:18.197Z,99262.38
2023-07-05T06:28:21.576Z,99266.09
2023-07-05T06:32:23.763Z,99280.47
2023-07-05T06:36:26.804Z,99288.34
2023-07-05T06:40:28.764Z,99291.06
2023-07-05T06:44:31.186Z,99309.75
2023-07-05T06:48:33.283Z,99319.66
2023-07-05T06:52:36.185Z,99321.69
2023-07-05T06:56:38.606Z,99324.22
2023-07-05T07:00:40.399Z,99341.25
2023-07-05T07:04:44.325Z,99355.28
2023-07-05T07:08:47.520Z,99359.66
2023-07-05T07:12:50.438Z,99366.34
2023-07-05T07:16:53.903Z,99375.34
2023-07-05T07:20:57.043Z,99385.09
2023-07-05T07:25:01.362Z,99401.06
2023-07-05T07:29:05.425Z,99402.75
2023-07-05T07:33:07.806Z,99385.81
2023-07-05T07:37:10.224Z,99401.31
2023-07-05T07:41:22.691Z,99406.09
2023-07-05T07:45:24.639Z,99430.28
2023-07-05T07:49:28.681Z,99425.91
2023-07-05T07:53:31.199Z,99438.00
2023-07-05T07:57:35.747Z,99428.44
2023-07-05T08:01:39.681Z,99441.53
2023-07-05T08:05:41.547Z,99454.13
2023-07-05T08:09:44.213Z,99457.34
2023-07-05T08:13:50.711Z,99461.97
2023-07-05T08:17:52.560Z,99469.91
2023-07-05T08:21:55.213Z,99452.03
2023-07-05T08:25:58.207Z,99451.88
2023-07-05T08:30:00.229Z,99458.44
2023-07-05T08:34:02.836Z,99466.13
2023-07-05T08:38:06.268Z,99470.06
2023-07-05T08:42:27.232Z,99467.44
2023-07-05T08:46:30.823Z,99466.97
2023-07-05T08:50:40.131Z,99471.06
2023-07-05T08:54:45.217Z,99471.84
2023-07-05T08:58:52.735Z,99477.78
2023-07-05T09:02:55.338Z,99496.97
2023-07-05T09:07:10.046Z,99511.72
2023-07-05T09:11:16.596Z,99505.28
2023-07-05T09:15:26.639Z,99511.84
2023-07-05T09:19:50.713Z,99511.28
2023-07-05T09:23:57.840Z,99513.16
2023-07-05T09:28:22.572Z,99527.56
2023-07-05T09:32:32.092Z,99518.47
2023-07-05T09:36:35.148Z,99499.09
2023-07-05T09:40:43.897Z,99524.03
2023-07-05T09:44:46.668Z,99513.97
2023-07-05T09:48:52.018Z,99525.56
2023-07-05T09:53:00.972Z,99518.47
2023-07-05T09:57:07.435Z,99526.31
2023-07-05T10:01:19.521Z,99545.66
2023-07-05T10:05:30.339Z,99547.34
2023-07-05T10:09:33.210Z,99546.97
2023-07-05T10:13:36.292Z,99551.09
2023-07-05T10:17:42.705Z,99581.38
2023-07-05T10:21:45.213Z,99578.84
2023-07-05T10:25:48.619Z,99576.25
2023-07-05T10:29:51.615Z,99557.53
2023-07-05T10:34:05.572Z,99571.09
2023-07-05T10:38:19.900Z,99587.56
2023-07-05T10:42:21.822Z,99578.84
2023-07-05T10:46:27.745Z,99572.53
2023-07-05T10:50:31.816Z,99592.34
2023-07-05T10:54:39.183Z,99589.19
2023-07-05T10:58:58.448Z,99599.97
2023-07-05T11:03:13.204Z,99589.03
2023-07-05T11:07:16.089Z,99587.25
2023-07-05T11:11:26.058Z,99601.75
2023-07-05T11:15:29.070Z,99579.16
2023-07-05T11:19:33.238Z,99586.03
2023-07-05T11:23:44.988Z,99580.53
2023-07-05T11:27:57.098Z,99584.38
2023-07-05T11:32:05.238Z,99590.47
2023-07-05T11:36:32.781Z,99597.13
2023-07-05T11:40:57.822Z,99584.31
2023-07-05T11:45:01.257Z,99601.19
2023-07-05T11:49:26.223Z,99591.44
2023-07-05T11:53:33.187Z,99598.75
2023-07-05T11:57:43.875Z,99588.41
2023-07-05T12:01:45.814Z,99592.78
2023-07-05T12:05:56.912Z,99602.44
2023-07-05T12:10:00.382Z,99586.50
2023-07-05T12:14:06.407Z,99592.69
2023-07-05T12:18:14.578Z,99604.19
2023-07-05T12:22:22.407Z,99581.53
2023-07-05T12:26:35.497Z,99576.50
2023-07-05T12:30:41.589Z,99578.69
2023-07-05T12:34:46.044Z,99573.75
2023-07-05T12:38:49.989Z,99570.28
2023-07-05T12:43:06.038Z,99562.88
2023-07-05T12:47:17.640Z,99571.66
2023-07-05T12:51:23.226Z,99558.38
2023-07-05T12:55:28.395Z,99564.31
2023-07-05T12:59:44.614Z,99565.41
2023-07-05T13:03:58.410Z,99574.31
2023-07-05T13:08:03.229Z,99553.06
2023-07-05T13:12:08.295Z,99587.78
2023-07-05T13:16:31.164Z,99567.28
2023-07-05T13:20:35.889Z,99570.00
2023-07-05T13:24:38.485Z,99570.31
2023-07-05T13:28:42.255Z,99576.19
2023-07-05T13:32:51.146Z,99554.41
2023-07-05T13:36:58.860Z,99578.00
2023-07-05T13:41:01.019Z,99572.09
2023-07-05T13:45:04.273Z,99573.41
2023-07-05T13:49:12.477Z,99565.16
2023-07-05T13:53:22.009Z,99576.13
2023-07-05T13:57:26.408Z,99566.72
2023-07-05T14:01:28.712Z,99579.34
2023-07-05T14:05:30.930Z,99586.69
2023-07-05T14:09:34.440Z,99565.31
2023-07-05T14:13:37.676Z,99563.16
2023-07-05T14:17:40.304Z,99564.34
2023-07-05T14:21:42.279Z,99569.75
2023-07-05T14:25:50.370Z,99565.22
2023-07-05T14:29:55.263Z,99574.00
2023-07-05T14:33:58.051Z,99572.75
2023-07-05T14:38:00.642Z,99572.53
2023-07-05T14:42:03.965Z,99572.84
2023-07-05T14:46:11.254Z,99583.00
2023-07-05T14:50:15.274Z,99579.63
2023-07-05T14:54:18.304Z,99589.06
2023-07-05T14:58:22.564Z,99574.72
2023-07-05T15:02:25.028Z,99585.47
2023-07-05T15:06:27.937Z,99587.81
2023-07-05T15:10:32.491Z,99577.13
2023-07-05T15:14:35.110Z,99582.59
2023-07-05T15:18:38.296Z,99596.06
2023-07-05T15:22:40.127Z,99590.56
2023-07-05T15:26:41.909Z,99577.22
2023-07-05T15:30:43.612Z,99592.41
2023-07-05T15:34:48.299Z,99587.53
2023-07-05T15:38:50.737Z,99582.72
2023-07-05T15:42:53.102Z,99581.41
2023-07-05T15:46:58.174Z,99586.25
2023-07-05T15:51:00.037Z,99576.25
2023-07-05T15:55:02.320Z,99577.31
2023-07-05T15:59:13.699Z,99591.47
2023-07-05T16:03:16.070Z,99580.31
2023-07-05T16:07:18.943Z,99593.78
2023-07-05T16:11:21.878Z,99597.28
2023-07-05T16:15:24.304Z,99610.06
2023-07-05T16:19:26.616Z,99596.22
2023-07-05T16:23:28.503Z,99585.50
2023-07-05T16:27:30.216Z,99604.66
2023-07-05T16:31:32.051Z,99600.25
2023-07-05T16:35:34.328Z,99607.06
2023-07-05T16:39:36.675Z,99609.34
2023-07-05T16:43:38.415Z,99609.44
2023-07-05T16:47:46.683Z,99612.06
2023-07-05T16:51:48.972Z,99605.28
2023-07-05T16:55:51.480Z,99606.94
2023-07-05T16:59:54.752Z,99609.75
2023-07-05T17:03:57.354Z,99609.44
2023-07-05T17:07:59.572Z,99615.25
2023-07-05T17:12:02.021Z,99624.78
2023-07-05T17:16:05.090Z,99623.13
2023-07-05T17:20:07.413Z,99611.78
2023-07-05T17:24:11.971Z,99614.25
2023-07-05T17:28:15.403Z,99616.16
2023-07-05T17:32:17.164Z,99620.47
2023-07-05T17:36:22.011Z,99609.31
2023-07-05T17:40:25.469Z,99617.84
2023-07-05T17:44:27.038Z,99620.69
2023-07-05T17:48:28.841Z,99624.97
2023-07-05T17:52:30.621Z,99628.16
2023-07-05T17:56:34.091Z,99624.03
2023-07-05T18:00:36.000Z,99624.22
2023-07-05T18:04:37.892Z,99630.94
2023-07-05T18:08:41.343Z,99636.25
2023-07-05T18:12:43.292Z,99638.97
2023-07-05T18:16:45.249Z,99651.38
2023-07-05T18:20:46.977Z,99655.53
2023-07-05T18:24:49.396Z,99647.31
2023-07-05T18:28:53.439Z,99647.31
2023-07-05T18:32:55.677Z,99656.88
2023-07-05T18:36:57.836Z,99662.81
2023-07-05T18:41:04.916Z,99657.53
2023-07-05T18:45:08.537Z,99665.09
2023-07-05T18:49:10.437Z,99662.56
2023-07-05T18:53:12.454Z,99669.59
2023-07-05T18:57:16.505Z,99678.94
2023-07-05T19:01:20.374Z,99678.03
2023-07-05T19:05:25.195Z,99674.13
2023-07-05T19:09:27.657Z,99679.75
2023-07-05T19:13:32.153Z,99679.28
2023-07-05T19:17:34.091Z,99682.28
2023-07-05T19:21:36.579Z,99692.81
2023-07-05T19:25:42.992Z,99693.97
2023-07-05T19:29:44.979Z,99696.69
2023-07-05T19:33:48.409Z,99694.53
2023-07-05T19:37:50.223Z,99706.72
2023-07-05T19:41:52.434Z,99712.75
2023-07-05T19:45:55.473Z,99715.84
2023-07-05T19:49:57.850Z,99713.38
2023-07-05T19:54:00.508Z,99720.63
2023-07-05T19:58:03.502Z,99721.63
2023-07-05T20:02:06.055Z,99728.06
2023-07-05T20:06:09.246Z,99728.56
2023-07-05T20:10:11.229Z,99729.72
2023-07-05T20:14:13.368Z,99735.94
2023-07-05T20:18:16.447Z,99745.75
2023-07-05T20:22:18.339Z,99748.34
2023-07-05T20:26:20.169Z,99761.06
2023-07-05T20:30:23.555Z,99763.03
2023-07-05T20:34:25.476Z,99760.16
2023-07-05T20:38:29.348Z,99767.56
2023-07-05T20:42:31.115Z,99778.94
2023-07-05T20:46:32.962Z,99775.47
2023-07-05T20:50:34.853Z,99773.91
2023-07-05T20:54:37.833Z,99786.50
2023-07-05T20:58:39.877Z,99789.53
2023-07-05T21:02:41.574Z,99799.34
2023-07-05T21:06:44.256Z,99801.00
2023-07-05T21:10:47.656Z,99801.59
2023-07-05T21:14:49.522Z,99799.97
2023-07-05T21:18:51.406Z,99796.63
2023-07-05T21:22:53.350Z,99800.63
2023-07-05T21:26:55.871Z,99794.06
2023-07-05T21:31:00.712Z,99796.72
2023-07-05T21:35:03.046Z,99799.06
2023-07-05T21:39:06.313Z,99802.22
2023-07-05T21:43:09.491Z,99803.75
2023-07-05T21:47:11.223Z,99814.13
2023-07-05T21:51:13.971Z,99815.03
2023-07-05T21:55:16.412Z,99815.41
2023-07-05T21:59:18.315Z,99816.31
2023-07-05T22:03:20.151Z,99821.66
2023-07-05T22:07:22.046Z,99825.03
2023-07-05T22:11:24.409Z,99825.94
2023-07-05T22:15:29.087Z,99839.94
2023-07-05T22:19:31.107Z,99842.50
2023-07-05T22:23:32.883Z,99838.06
2023-07-05T22:27:34.718Z,99838.66
2023-07-05T22:31:38.825Z,99829.53
2023-07-05T22:35:41.153Z,99830.75
2023-07-05T22:39:43.086Z,99833.97
2023-07-05T22:43:47.304Z,99840.25
2023-07-05T22:47:49.218Z,99837.28
2023-07-05T22:51:51.066Z,99842.66
2023-07-05T22:55:56.435Z,99837.72
2023-07-05T22:59:59.103Z,99839.19
2023-07-05T23:04:02.327Z,99844.28
2023-07-05T23:08:04.391Z,99851.59
2023-07-05T23:12:08.166Z,99851.34
2023-07-05T23:16:12.126Z,99854.47
2023-07-05T23:20:13.974Z,99855.94
2023-07-05T23:24:16.684Z,99850.44
2023-07-05T23:28:18.487Z,99851.91
2023-07-05T23:32:20.427Z,99843.91
2023-07-05T23:36:25.513Z,99848.69
2023-07-05T23:40:27.436Z,99844.56
2023-07-05T23:44:29.125Z,99840.16
2023-07-05T23:48:36.251Z,99850.16
2023-07-05T23:52:38.644Z,99845.72
2023-07-05T23:56:49.520Z,99846.88
